createdAt,value
2017-12-27T00:02:16.216Z,1.90
2017-12-27T00:04:50.215Z,1.93
2017-12-27T00:07:24.212Z,2.43
2017-12-27T00:09:59.125Z,2.23
2017-12-27T00:12:33.099Z,2.43
2017-12-27T00:15:07.033Z,3.13
2017-12-27T00:17:40.890Z,1.97
2017-12-27T00:20:14.883Z,1.77
2017-12-27T00:22:49.665Z,2.80
2017-12-27T00:28:27.642Z,2.73
2017-12-27T00:30:58.614Z,2.17
2017-12-27T00:33:27.594Z,1.93
2017-12-27T00:35:55.939Z,1.60
2017-12-27T00:38:24.166Z,2.93
2017-12-27T00:40:52.417Z,2.27
2017-12-27T00:43:20.754Z,2.17
2017-12-27T00:45:50.325Z,2.37
2017-12-27T00:48:18.547Z,1.90
2017-12-27T00:50:46.937Z,1.87
2017-12-27T00:53:15.273Z,1.90
2017-12-27T00:55:43.539Z,1.80
2017-12-27T00:58:11.788Z,2.17
2017-12-27T01:00:40.071Z,1.70
2017-12-27T01:03:08.372Z,1.70
2017-12-27T01:05:36.600Z,1.70
2017-12-27T01:08:05.638Z,1.90
2017-12-27T01:10:33.901Z,1.43
2017-12-27T01:13:02.146Z,2.20
2017-12-27T01:15:31.007Z,2.40
2017-12-27T01:17:59.239Z,2.30
2017-12-27T01:20:27.511Z,1.67
2017-12-27T01:22:56.524Z,1.90
2017-12-27T01:25:24.812Z,2.00
2017-12-27T01:27:53.008Z,1.93
2017-12-27T01:30:22.185Z,3.70
2017-12-27T01:32:50.463Z,2.00
2017-12-27T01:35:18.736Z,2.43
2017-12-27T01:37:46.984Z,2.27
2017-12-27T01:40:15.966Z,2.27
2017-12-27T01:42:44.532Z,2.13
2017-12-27T01:45:13.582Z,2.40
2017-12-27T01:47:41.873Z,2.87
2017-12-27T01:50:10.158Z,1.77
2017-12-27T01:52:38.398Z,2.23
2017-12-27T01:55:06.774Z,1.73
2017-12-27T01:57:35.770Z,2.60
2017-12-27T02:00:04.015Z,1.87
2017-12-27T02:02:33.122Z,1.67
2017-12-27T02:05:01.390Z,2.00
2017-12-27T02:07:30.629Z,2.20
2017-12-27T02:09:58.878Z,2.00
2017-12-27T02:12:27.161Z,2.13
2017-12-27T02:14:56.192Z,1.77
2017-12-27T02:17:24.474Z,1.90
2017-12-27T02:19:52.725Z,1.63
2017-12-27T02:22:20.977Z,2.07
2017-12-27T02:24:50.025Z,1.90
2017-12-27T02:27:18.288Z,2.13
2017-12-27T02:29:46.953Z,1.87
2017-12-27T02:32:15.979Z,2.30
2017-12-27T02:34:44.234Z,1.50
2017-12-27T02:37:12.531Z,2.10
2017-12-27T02:42:56.287Z,1.80
2017-12-27T02:45:24.574Z,2.40
2017-12-27T02:47:52.809Z,1.97
2017-12-27T02:50:21.822Z,1.80
2017-12-27T02:52:50.073Z,2.47
2017-12-27T02:55:18.357Z,1.77
2017-12-27T02:57:46.833Z,2.27
2017-12-27T03:00:15.915Z,1.97
2017-12-27T03:02:44.181Z,1.60
2017-12-27T03:05:12.452Z,1.93
2017-12-27T03:07:40.982Z,2.20
2017-12-27T03:10:09.207Z,1.30
2017-12-27T03:12:38.135Z,2.10
2017-12-27T03:15:06.370Z,1.77
2017-12-27T03:17:34.751Z,2.53
2017-12-27T03:20:03.006Z,2.33
2017-12-27T03:22:31.233Z,2.13
2017-12-27T03:24:59.485Z,3.07
2017-12-27T03:27:27.750Z,2.40
2017-12-27T03:29:55.994Z,2.80
2017-12-27T03:32:26.014Z,2.80
2017-12-27T03:34:54.242Z,2.90
2017-12-27T03:37:22.469Z,2.90
2017-12-27T03:39:51.496Z,3.57
2017-12-27T03:42:19.792Z,2.93
2017-12-27T03:44:48.034Z,3.07
2017-12-27T03:47:16.269Z,3.53
2017-12-27T03:49:44.547Z,2.80
2017-12-27T03:52:13.599Z,2.80
2017-12-27T03:54:41.874Z,2.80
2017-12-27T03:57:10.118Z,2.10
2017-12-27T03:59:38.598Z,3.20
2017-12-27T04:02:07.601Z,2.57
2017-12-27T04:04:36.670Z,3.00
2017-12-27T04:07:05.909Z,3.13
2017-12-27T04:09:34.191Z,3.47
2017-12-27T04:12:02.425Z,2.80
2017-12-27T04:14:30.876Z,3.93
2017-12-27T04:16:59.145Z,4.10
2017-12-27T04:19:28.190Z,2.33
2017-12-27T04:21:56.423Z,2.40
2017-12-27T04:24:24.658Z,2.50
2017-12-27T04:26:53.681Z,2.80
2017-12-27T04:29:21.923Z,2.17
2017-12-27T04:31:50.591Z,3.27
2017-12-27T04:34:19.176Z,2.00
2017-12-27T04:36:47.407Z,2.57
2017-12-27T04:39:15.739Z,2.10
2017-12-27T04:41:45.466Z,2.30
2017-12-27T04:44:14.488Z,2.87
2017-12-27T04:46:42.742Z,2.37
2017-12-27T04:49:11.777Z,2.40
2017-12-27T04:51:40.006Z,2.20
2017-12-27T04:54:09.062Z,2.60
2017-12-27T04:56:37.343Z,1.60
2017-12-27T04:59:05.596Z,2.67
2017-12-27T05:01:33.849Z,2.33
2017-12-27T05:04:02.083Z,1.97
2017-12-27T05:06:30.341Z,2.10
2017-12-27T05:08:58.579Z,2.63
2017-12-27T05:11:26.869Z,2.33
2017-12-27T05:13:55.922Z,2.00
2017-12-27T05:16:24.203Z,2.90
2017-12-27T05:18:52.472Z,2.67
2017-12-27T05:21:22.330Z,1.90
2017-12-27T05:23:50.580Z,1.93
2017-12-27T05:26:18.867Z,1.93
2017-12-27T05:28:47.893Z,2.50
2017-12-27T05:31:16.932Z,1.60
2017-12-27T05:33:45.169Z,1.60
2017-12-27T05:36:13.564Z,2.10
2017-12-27T05:38:41.823Z,2.70
2017-12-27T05:41:11.888Z,2.00
2017-12-27T05:43:40.174Z,3.17
2017-12-27T05:46:09.365Z,2.00
2017-12-27T05:48:37.638Z,1.40
2017-12-27T05:51:05.867Z,1.80
2017-12-27T05:53:34.120Z,2.37
2017-12-27T05:56:03.121Z,2.00
2017-12-27T05:58:31.372Z,2.67
2017-12-27T06:00:59.630Z,2.10
2017-12-27T06:03:27.894Z,2.20
2017-12-27T06:05:56.102Z,2.43
2017-12-27T06:08:24.385Z,3.20
2017-12-27T06:10:54.001Z,2.00
2017-12-27T06:13:22.241Z,2.97
2017-12-27T06:15:50.514Z,2.97
2017-12-27T06:18:18.794Z,3.30
2017-12-27T06:20:47.006Z,2.83
2017-12-27T06:23:16.810Z,4.53
2017-12-27T06:25:45.049Z,7.67
2017-12-27T06:28:13.357Z,2.60
2017-12-27T06:30:41.553Z,4.23
2017-12-27T06:33:10.599Z,3.50
2017-12-27T06:35:38.880Z,3.27
2017-12-27T06:38:07.110Z,2.23
2017-12-27T06:40:36.164Z,3.80
2017-12-27T06:43:04.394Z,2.90
2017-12-27T06:45:33.516Z,3.20
2017-12-27T06:48:01.759Z,2.03
2017-12-27T06:50:30.009Z,3.50
2017-12-27T06:52:58.281Z,2.53
2017-12-27T06:55:26.802Z,3.00
2017-12-27T06:57:56.065Z,2.93
2017-12-27T07:00:24.311Z,3.23
2017-12-27T07:02:52.542Z,2.50
2017-12-27T07:05:21.565Z,2.93
2017-12-27T07:07:49.817Z,4.20
2017-12-27T07:10:18.836Z,2.50
2017-12-27T07:12:47.413Z,3.17
2017-12-27T07:15:15.621Z,3.00
2017-12-27T07:17:43.933Z,2.90
2017-12-27T07:20:12.195Z,2.90
2017-12-27T07:22:40.413Z,3.20
2017-12-27T07:25:08.659Z,3.37
2017-12-27T07:27:37.047Z,2.90
2017-12-27T07:30:05.313Z,1.80
2017-12-27T07:32:33.584Z,3.00
2017-12-27T07:35:01.848Z,2.50
2017-12-27T07:37:30.128Z,2.10
2017-12-27T07:39:58.338Z,2.57
2017-12-27T07:42:28.342Z,2.10
2017-12-27T07:44:56.573Z,2.07
2017-12-27T07:47:26.810Z,1.90
2017-12-27T07:49:55.369Z,1.80
2017-12-27T07:52:25.048Z,1.67
2017-12-27T07:54:53.333Z,1.40
2017-12-27T07:57:22.514Z,1.67
2017-12-27T07:59:50.748Z,1.87
2017-12-27T08:02:18.970Z,1.90
2017-12-27T08:04:47.234Z,1.33
2017-12-27T08:07:15.505Z,1.67
2017-12-27T08:09:43.707Z,1.70
2017-12-27T08:12:12.745Z,1.23
2017-12-27T08:14:41.081Z,1.30
2017-12-27T08:17:10.107Z,1.20
2017-12-27T08:19:39.087Z,1.30
2017-12-27T08:22:08.097Z,1.20
2017-12-27T08:24:36.329Z,0.93
2017-12-27T08:27:04.606Z,1.70
2017-12-27T08:29:32.867Z,1.37
2017-12-27T08:32:01.118Z,1.40
2017-12-27T08:34:30.275Z,1.13
2017-12-27T08:36:59.297Z,0.97
2017-12-27T08:39:27.564Z,1.40
2017-12-27T08:41:56.624Z,1.27
2017-12-27T08:44:24.851Z,1.40
2017-12-27T08:46:53.101Z,1.83
2017-12-27T08:49:21.333Z,1.70
2017-12-27T08:51:50.204Z,2.37
2017-12-27T08:54:18.421Z,2.00
2017-12-27T08:56:46.690Z,2.00
2017-12-27T08:59:14.903Z,2.17
2017-12-27T09:01:43.926Z,1.67
2017-12-27T09:04:12.158Z,4.63
2017-12-27T09:06:41.195Z,1.10
2017-12-27T09:09:09.429Z,1.40
2017-12-27T09:11:38.514Z,1.67
2017-12-27T09:14:06.725Z,1.00
2017-12-27T09:16:34.975Z,1.60
2017-12-27T09:19:03.420Z,1.90
2017-12-27T09:21:31.710Z,1.63
2017-12-27T09:23:59.943Z,1.43
2017-12-27T09:26:29.010Z,1.80
2017-12-27T09:28:57.216Z,1.77
2017-12-27T09:31:25.862Z,1.60
2017-12-27T09:33:54.977Z,3.17
2017-12-27T09:36:23.210Z,1.10
2017-12-27T09:38:51.471Z,2.03
2017-12-27T09:41:20.653Z,6.37
2017-12-27T09:43:48.953Z,1.47
2017-12-27T09:46:17.191Z,2.13
2017-12-27T09:48:47.671Z,1.60
2017-12-27T09:51:16.760Z,2.13
2017-12-27T09:53:45.009Z,1.40
2017-12-27T09:56:13.261Z,1.40
2017-12-27T09:58:42.271Z,1.40
2017-12-27T10:01:12.097Z,1.30
2017-12-27T10:03:42.082Z,2.73
2017-12-27T10:06:10.326Z,2.00
2017-12-27T10:08:38.569Z,1.70
2017-12-27T10:11:06.824Z,1.47
2017-12-27T10:13:35.881Z,1.90
2017-12-27T10:16:04.119Z,2.17
2017-12-27T10:18:32.380Z,2.23
2017-12-27T10:21:01.441Z,2.30
2017-12-27T10:23:30.134Z,1.83
2017-12-27T10:26:00.094Z,1.80
2017-12-27T10:28:29.231Z,1.40
2017-12-27T10:30:57.474Z,1.50
2017-12-27T10:33:26.470Z,1.60
2017-12-27T10:35:54.770Z,1.60
2017-12-27T10:38:23.761Z,1.40
2017-12-27T10:40:52.047Z,2.00
2017-12-27T10:43:20.265Z,2.07
2017-12-27T10:45:50.007Z,1.90
2017-12-27T10:48:19.173Z,2.40
2017-12-27T10:50:47.654Z,2.60
2017-12-27T10:53:15.934Z,1.83
2017-12-27T10:55:45.009Z,1.73
2017-12-27T10:58:14.109Z,2.70
2017-12-27T11:00:44.972Z,2.10
2017-12-27T11:03:14.115Z,1.50
2017-12-27T11:05:42.455Z,1.50
2017-12-27T11:08:13.857Z,1.80
2017-12-27T11:10:43.906Z,2.20
2017-12-27T11:13:12.992Z,1.83
2017-12-27T11:15:42.154Z,1.70
2017-12-27T11:18:11.194Z,1.77
2017-12-27T11:20:40.013Z,1.87
2017-12-27T11:23:09.935Z,1.93
2017-12-27T11:25:38.212Z,2.13
2017-12-27T11:28:06.488Z,3.03
2017-12-27T11:30:34.745Z,2.77
2017-12-27T11:33:03.078Z,2.50
2017-12-27T11:35:31.318Z,2.90
2017-12-27T11:37:59.725Z,2.43
2017-12-27T11:40:28.067Z,2.40
2017-12-27T11:42:57.263Z,2.27
2017-12-27T11:45:28.215Z,3.00
2017-12-27T11:47:58.721Z,3.30
2017-12-27T11:50:27.627Z,2.63
2017-12-27T11:52:56.067Z,4.57
2017-12-27T11:55:25.170Z,6.30
2017-12-27T11:57:53.467Z,2.30
2017-12-27T12:00:22.578Z,7.33
2017-12-27T12:02:50.857Z,3.90
2017-12-27T12:05:19.151Z,3.77
2017-12-27T12:07:47.417Z,2.20
2017-12-27T12:10:17.888Z,2.03
2017-12-27T12:12:47.687Z,3.03
2017-12-27T12:15:17.487Z,2.93
2017-12-27T12:17:47.322Z,2.30
2017-12-27T12:20:15.620Z,2.70
2017-12-27T12:22:45.874Z,6.00
2017-12-27T12:25:16.355Z,4.13
2017-12-27T12:27:45.458Z,3.17
2017-12-27T12:30:15.090Z,4.10
2017-12-27T12:32:43.935Z,3.40
2017-12-27T12:35:12.219Z,2.67
2017-12-27T12:37:41.500Z,2.60
2017-12-27T12:40:11.191Z,2.63
2017-12-27T12:42:41.172Z,1.80
2017-12-27T12:45:09.433Z,2.80
2017-12-27T12:47:38.382Z,4.50
2017-12-27T12:50:07.235Z,3.20
2017-12-27T12:52:35.598Z,2.40
2017-12-27T12:55:03.885Z,2.47
2017-12-27T12:57:34.294Z,2.63
2017-12-27T13:00:05.037Z,2.60
2017-12-27T13:02:34.783Z,1.77
2017-12-27T13:05:03.043Z,1.87
2017-12-27T13:07:31.833Z,1.53
2017-12-27T13:10:00.453Z,1.87
2017-12-27T13:12:29.711Z,1.87
2017-12-27T13:14:58.079Z,2.20
2017-12-27T13:17:26.357Z,2.00
2017-12-27T13:19:55.438Z,1.60
2017-12-27T13:22:25.603Z,2.23
2017-12-27T13:24:55.130Z,2.30
2017-12-27T13:27:24.157Z,1.80
2017-12-27T13:29:54.108Z,1.80
2017-12-27T13:32:22.367Z,1.77
2017-12-27T13:34:50.655Z,1.93
2017-12-27T13:37:20.155Z,2.00
2017-12-27T13:39:50.883Z,2.40
2017-12-27T13:42:22.004Z,2.30
2017-12-27T13:44:52.887Z,2.00
2017-12-27T13:47:21.167Z,2.40
2017-12-27T13:49:49.415Z,1.80
2017-12-27T13:52:19.063Z,2.23
2017-12-27T13:54:48.230Z,2.23
2017-12-27T13:57:16.481Z,2.10
2017-12-27T13:59:47.284Z,1.57
2017-12-27T14:02:17.032Z,1.70
2017-12-27T14:04:47.028Z,1.73
2017-12-27T14:07:16.973Z,1.63
2017-12-27T14:09:46.047Z,1.40
2017-12-27T14:12:15.745Z,2.10
2017-12-27T14:14:44.926Z,1.87
2017-12-27T14:17:13.206Z,2.10
2017-12-27T14:19:41.515Z,2.03
2017-12-27T14:22:10.659Z,1.43
2017-12-27T14:24:41.266Z,1.50
2017-12-27T14:27:10.791Z,1.80
2017-12-27T14:29:40.492Z,2.40
2017-12-27T14:32:08.877Z,2.33
2017-12-27T14:34:37.726Z,2.97
2017-12-27T14:37:08.347Z,2.43
2017-12-27T14:39:39.975Z,2.03
2017-12-27T14:42:09.765Z,2.20
2017-12-27T14:44:40.234Z,2.70
2017-12-27T14:47:08.451Z,2.07
2017-12-27T14:49:38.252Z,2.73
2017-12-27T14:52:07.736Z,2.30
2017-12-27T14:54:36.683Z,2.53
2017-12-27T14:57:04.969Z,2.50
2017-12-27T14:59:33.870Z,4.00
2017-12-27T15:02:05.761Z,2.73
2017-12-27T15:04:34.144Z,2.90
2017-12-27T15:07:04.122Z,2.40
2017-12-27T15:09:32.437Z,2.40
2017-12-27T15:12:01.944Z,2.43
2017-12-27T15:14:31.727Z,2.73
2017-12-27T15:17:02.500Z,3.77
2017-12-27T15:19:32.713Z,3.27
2017-12-27T15:22:01.776Z,2.77
2017-12-27T15:24:31.763Z,4.20
2017-12-27T15:27:00.784Z,2.50
2017-12-27T15:29:29.764Z,2.40
2017-12-27T15:31:58.086Z,3.17
2017-12-27T15:34:27.405Z,3.20
2017-12-27T15:36:58.697Z,3.60
2017-12-27T15:39:27.727Z,3.10
2017-12-27T15:41:55.992Z,3.10
2017-12-27T15:44:24.245Z,2.63
2017-12-27T15:46:54.216Z,2.97
2017-12-27T15:49:24.810Z,2.77
2017-12-27T15:51:54.050Z,2.97
2017-12-27T15:54:22.901Z,3.07
2017-12-27T15:56:52.053Z,3.67
2017-12-27T15:59:21.456Z,2.70
2017-12-27T16:01:52.261Z,6.67
2017-12-27T16:04:22.918Z,4.60
2017-12-27T16:06:52.033Z,4.80
2017-12-27T16:09:21.798Z,5.33
2017-12-27T16:11:50.051Z,6.37
2017-12-27T16:14:19.444Z,8.40
2017-12-27T16:16:49.315Z,4.60
2017-12-27T16:19:18.206Z,5.23
2017-12-27T16:21:46.468Z,3.57
2017-12-27T16:24:14.752Z,5.47
2017-12-27T16:26:43.244Z,3.63
2017-12-27T16:29:11.575Z,7.80
2017-12-27T16:31:40.726Z,5.50
2017-12-27T16:34:09.009Z,3.63
2017-12-27T16:36:38.659Z,3.50
2017-12-27T16:39:06.928Z,3.83
2017-12-27T16:41:35.263Z,4.60
2017-12-27T16:44:03.966Z,7.27
2017-12-27T16:46:33.044Z,9.20
2017-12-27T16:49:01.308Z,5.00
2017-12-27T16:51:31.303Z,4.03
2017-12-27T16:53:59.588Z,2.60
2017-12-27T16:56:27.870Z,2.50
2017-12-27T16:58:56.913Z,3.20
2017-12-27T17:01:26.713Z,3.10
2017-12-27T17:03:56.385Z,3.27
2017-12-27T17:06:25.533Z,3.20
2017-12-27T17:08:54.561Z,3.30
2017-12-27T17:11:23.575Z,3.67
2017-12-27T17:13:52.005Z,3.13
2017-12-27T17:16:20.317Z,3.50
2017-12-27T17:18:49.194Z,4.17
2017-12-27T17:21:17.483Z,3.00
2017-12-27T17:23:46.066Z,2.57
2017-12-27T17:26:15.230Z,2.50
2017-12-27T17:28:43.491Z,2.57
2017-12-27T17:31:11.742Z,3.43
2017-12-27T17:33:40.575Z,2.80
2017-12-27T17:36:08.809Z,2.57
2017-12-27T17:38:37.072Z,3.00
2017-12-27T17:41:06.670Z,3.23
2017-12-27T17:43:35.651Z,2.50
2017-12-27T17:46:05.415Z,4.33
2017-12-27T17:48:34.437Z,3.33
2017-12-27T17:51:02.721Z,3.30
2017-12-27T17:53:31.778Z,2.67
2017-12-27T17:56:01.576Z,3.77
2017-12-27T17:58:31.620Z,4.03
2017-12-27T18:00:59.975Z,3.07
2017-12-27T18:03:31.465Z,5.67
2017-12-27T18:06:01.672Z,8.07
2017-12-27T18:08:29.981Z,6.87
2017-12-27T18:11:00.803Z,4.17
2017-12-27T18:13:29.672Z,4.30
2017-12-27T18:16:01.350Z,5.00
2017-12-27T18:18:29.655Z,4.97
2017-12-27T18:21:00.183Z,6.87
2017-12-27T18:23:31.771Z,6.17
2017-12-27T18:26:00.141Z,4.67
2017-12-27T18:28:29.596Z,5.43
2017-12-27T18:30:57.936Z,4.83
2017-12-27T18:33:27.128Z,5.60
2017-12-27T18:35:55.461Z,5.50
2017-12-27T18:38:23.743Z,5.07
2017-12-27T18:40:51.981Z,4.57
2017-12-27T18:43:20.262Z,6.10
2017-12-27T18:45:48.548Z,5.70
2017-12-27T18:48:18.250Z,6.50
2017-12-27T18:50:46.553Z,5.77
2017-12-27T18:53:14.803Z,7.00
2017-12-27T18:55:44.339Z,5.50
2017-12-27T18:58:14.232Z,5.13
2017-12-27T19:00:43.206Z,5.27
2017-12-27T19:03:12.991Z,5.77
2017-12-27T19:05:42.123Z,7.67
2017-12-27T19:08:10.391Z,5.90
2017-12-27T19:10:39.946Z,5.73
2017-12-27T19:13:08.917Z,7.00
2017-12-27T19:15:37.173Z,6.70
2017-12-27T19:18:07.402Z,8.03
2017-12-27T19:20:35.691Z,5.90
2017-12-27T19:23:04.031Z,6.13
2017-12-27T19:25:33.578Z,6.47
2017-12-27T19:28:01.856Z,7.17
2017-12-27T19:30:30.628Z,5.47
2017-12-27T19:32:58.955Z,6.33
2017-12-27T19:35:27.886Z,5.90
2017-12-27T19:37:57.344Z,6.73
2017-12-27T19:40:27.846Z,6.33
2017-12-27T19:42:56.292Z,8.20
2017-12-27T19:45:26.372Z,7.57
2017-12-27T19:47:55.676Z,6.70
2017-12-27T19:50:25.094Z,6.20
2017-12-27T19:52:55.387Z,7.07
2017-12-27T19:55:23.684Z,8.07
2017-12-27T19:57:54.357Z,8.40
2017-12-27T20:00:25.575Z,10.13
2017-12-27T20:02:56.847Z,8.97
2017-12-27T20:05:25.497Z,7.97
2017-12-27T20:07:54.088Z,7.80
2017-12-27T20:10:23.171Z,7.00
2017-12-27T20:12:51.762Z,7.80
2017-12-27T20:15:20.348Z,7.57
2017-12-27T20:17:49.568Z,8.93
2017-12-27T20:20:18.856Z,6.80
2017-12-27T20:22:47.436Z,7.63
2017-12-27T20:25:15.806Z,7.20
2017-12-27T20:27:45.840Z,6.33
2017-12-27T20:30:17.164Z,9.50
2017-12-27T20:32:45.735Z,8.07
2017-12-27T20:35:15.059Z,8.20
2017-12-27T20:37:43.957Z,8.03
2017-12-27T20:40:13.067Z,8.70
2017-12-27T20:42:43.117Z,7.90
2017-12-27T20:45:11.381Z,9.23
2017-12-27T20:47:40.772Z,9.40
2017-12-27T20:50:12.021Z,9.47
2017-12-27T20:52:42.990Z,8.60
2017-12-27T20:55:11.526Z,7.53
2017-12-27T20:57:40.102Z,8.77
2017-12-27T21:00:10.293Z,8.80
2017-12-27T21:02:39.307Z,9.40
2017-12-27T21:05:07.757Z,8.13
2017-12-27T21:07:36.704Z,8.17
2017-12-27T21:10:06.130Z,8.60
2017-12-27T21:12:34.660Z,7.50
2017-12-27T21:15:03.221Z,8.80
2017-12-27T21:17:31.998Z,8.80
2017-12-27T21:20:00.363Z,9.63
2017-12-27T21:22:29.549Z,8.17
2017-12-27T21:24:59.575Z,8.67
2017-12-27T21:27:29.486Z,9.00
2017-12-27T21:30:00.512Z,9.40
2017-12-27T21:32:29.527Z,7.40
2017-12-27T21:34:59.541Z,7.97
2017-12-27T21:37:30.624Z,6.80
2017-12-27T21:39:59.047Z,5.97
2017-12-27T21:42:27.982Z,6.17
2017-12-27T21:44:57.043Z,6.07
2017-12-27T21:47:31.847Z,5.60
2017-12-27T21:50:00.895Z,5.50
2017-12-27T21:52:31.833Z,6.57
2017-12-27T21:55:00.915Z,6.13
2017-12-27T21:57:31.559Z,6.20
2017-12-27T22:00:07.325Z,6.17
2017-12-27T22:02:36.664Z,6.13
2017-12-27T22:05:05.018Z,5.50
2017-12-27T22:07:34.369Z,4.33
2017-12-27T22:10:02.666Z,4.93
2017-12-27T22:12:32.320Z,4.03
2017-12-27T22:15:01.394Z,4.37
2017-12-27T22:17:30.252Z,3.90
2017-12-27T22:19:58.790Z,4.00
2017-12-27T22:22:27.866Z,4.17
2017-12-27T22:24:57.544Z,4.57
2017-12-27T22:27:26.609Z,5.23
2017-12-27T22:30:05.748Z,4.70
2017-12-27T22:32:33.991Z,5.50
2017-12-27T22:35:02.257Z,4.50
2017-12-27T22:37:32.691Z,5.33
2017-12-27T22:40:01.874Z,5.17
2017-12-27T22:42:30.162Z,5.40
2017-12-27T22:45:00.070Z,5.40
2017-12-27T22:47:28.374Z,5.37
2017-12-27T22:49:56.872Z,6.57
2017-12-27T22:52:26.803Z,6.67
2017-12-27T22:54:55.978Z,6.67
2017-12-27T22:57:24.226Z,7.50
2017-12-27T22:59:52.525Z,7.23
2017-12-27T23:02:23.520Z,8.13
2017-12-27T23:04:52.381Z,7.07
2017-12-27T23:07:20.633Z,8.93
2017-12-27T23:09:49.201Z,7.40
2017-12-27T23:12:17.475Z,6.23
2017-12-27T23:14:46.467Z,6.03
2017-12-27T23:17:15.505Z,5.90
2017-12-27T23:19:43.755Z,5.33
2017-12-27T23:22:12.786Z,5.63
2017-12-27T23:24:41.067Z,4.67
2017-12-27T23:27:09.661Z,5.40
2017-12-27T23:29:37.979Z,5.77
2017-12-27T23:32:06.217Z,5.20
2017-12-27T23:34:34.479Z,4.40
2017-12-27T23:37:03.587Z,4.83
2017-12-27T23:39:31.934Z,5.30
2017-12-27T23:42:00.226Z,5.03
2017-12-27T23:44:28.469Z,5.17
2017-12-27T23:46:57.632Z,5.83
2017-12-27T23:49:26.810Z,6.87
2017-12-27T23:51:55.050Z,6.70
2017-12-27T23:54:23.371Z,7.10
2017-12-27T23:56:51.590Z,8.47
2017-12-27T23:59:21.216Z,9.40
